createdAt,value
2022-11-15T00:00:28.066Z,54.72
2022-11-15T00:02:55.346Z,52.22
2022-11-15T00:05:22.134Z,62.03
2022-11-15T00:07:55.643Z,58.53
2022-11-15T00:10:22.764Z,59.28
2022-11-15T00:12:49.379Z,54.67
2022-11-15T00:15:16.068Z,48.72
2022-11-15T00:17:44.015Z,50.05
2022-11-15T00:20:11.488Z,54.35
2022-11-15T00:22:38.140Z,57.78
2022-11-15T00:25:05.796Z,51.25
2022-11-15T00:27:32.428Z,52.85
2022-11-15T00:29:59.044Z,47.72
2022-11-15T00:32:25.728Z,53.38
2022-11-15T00:34:53.717Z,53.25
2022-11-15T00:37:20.340Z,55.53
2022-11-15T00:39:47.084Z,48.40
2022-11-15T00:42:14.102Z,50.58
2022-11-15T00:44:40.679Z,52.58
2022-11-15T00:47:07.406Z,56.35
2022-11-15T00:49:34.119Z,49.45
2022-11-15T00:52:02.057Z,50.10
2022-11-15T00:54:28.796Z,50.47
2022-11-15T00:56:55.357Z,59.10
2022-11-15T00:59:22.003Z,57.33
2022-11-15T01:01:48.628Z,53.42
2022-11-15T01:04:15.313Z,49.53
2022-11-15T01:06:41.870Z,54.47
2022-11-15T01:09:10.087Z,55.47
2022-11-15T01:11:36.764Z,59.55
2022-11-15T01:14:03.626Z,61.65
2022-11-15T01:16:30.292Z,48.97
2022-11-15T01:18:57.004Z,58.50
2022-11-15T01:21:23.601Z,57.22
2022-11-15T01:23:53.802Z,52.75
2022-11-15T01:26:22.562Z,56.47
2022-11-15T01:28:49.454Z,50.35
2022-11-15T01:31:18.246Z,56.30
2022-11-15T01:33:45.599Z,58.58
2022-11-15T01:36:14.569Z,59.50
2022-11-15T01:38:54.076Z,54.60
2022-11-15T01:41:24.293Z,58.78
2022-11-15T01:43:54.546Z,59.70
2022-11-15T01:46:34.349Z,58.58
2022-11-15T01:49:04.822Z,55.58
2022-11-15T01:51:34.055Z,55.83
2022-11-15T01:54:05.439Z,61.05
2022-11-15T01:56:38.781Z,62.10
2022-11-15T02:01:35.277Z,59.97
2022-11-15T02:04:08.010Z,61.63
2022-11-15T02:06:35.723Z,59.28
2022-11-15T02:09:02.787Z,67.18
2022-11-15T02:11:29.727Z,65.00
2022-11-15T02:13:59.227Z,63.22
2022-11-15T02:16:35.949Z,64.00
2022-11-15T02:19:14.481Z,57.67
2022-11-15T02:21:48.075Z,76.30
2022-11-15T02:24:36.248Z,70.53
2022-11-15T02:27:49.425Z,66.00
2022-11-15T02:30:23.722Z,59.05
2022-11-15T02:32:55.644Z,56.47
2022-11-15T02:35:33.323Z,62.97
2022-11-15T02:38:07.782Z,60.83
2022-11-15T02:40:42.746Z,67.50
2022-11-15T02:43:11.969Z,73.78
2022-11-15T02:45:45.595Z,64.07
2022-11-15T02:48:13.205Z,62.63
2022-11-15T02:50:39.974Z,59.63
2022-11-15T02:53:07.964Z,61.28
2022-11-15T02:55:37.176Z,57.25
2022-11-15T02:58:22.495Z,57.35
2022-11-15T03:00:59.689Z,65.80
2022-11-15T03:03:44.993Z,57.80
2022-11-15T03:06:21.356Z,59.95
2022-11-15T03:08:58.516Z,58.00
2022-11-15T03:11:25.628Z,59.30
2022-11-15T03:13:58.451Z,65.90
2022-11-15T03:16:35.254Z,60.83
2022-11-15T03:19:07.747Z,55.22
2022-11-15T03:21:36.733Z,61.25
2022-11-15T03:24:06.713Z,53.88
2022-11-15T03:26:36.266Z,65.65
2022-11-15T03:29:08.423Z,59.72
2022-11-15T03:31:42.559Z,65.57
2022-11-15T03:34:21.678Z,59.80
2022-11-15T03:36:50.189Z,55.17
2022-11-15T03:39:20.602Z,60.50
2022-11-15T03:41:55.537Z,55.85
2022-11-15T03:44:33.527Z,62.75
2022-11-15T03:47:07.721Z,60.28
2022-11-15T03:49:37.451Z,58.63
2022-11-15T03:52:05.871Z,55.28
2022-11-15T03:54:32.481Z,59.17
2022-11-15T03:56:59.123Z,55.95
2022-11-15T03:59:25.739Z,57.80
2022-11-15T04:01:52.321Z,63.47
2022-11-15T04:04:20.375Z,60.60
2022-11-15T04:06:47.032Z,55.30
2022-11-15T04:09:13.848Z,57.50
2022-11-15T04:11:40.583Z,57.22
2022-11-15T04:14:07.193Z,53.92
2022-11-15T04:16:33.854Z,54.88
2022-11-15T04:19:00.464Z,57.25
2022-11-15T04:21:28.498Z,53.72
2022-11-15T04:23:55.243Z,55.17
2022-11-15T04:26:24.013Z,57.65
2022-11-15T04:28:51.128Z,58.30
2022-11-15T04:31:17.664Z,56.70
2022-11-15T04:33:44.387Z,51.88
2022-11-15T04:36:11.006Z,57.35
2022-11-15T04:38:38.942Z,54.33
2022-11-15T04:41:05.621Z,55.38
2022-11-15T04:43:32.601Z,55.63
2022-11-15T04:45:59.528Z,55.40
2022-11-15T04:48:26.135Z,50.00
2022-11-15T04:50:52.904Z,54.50
2022-11-15T04:53:19.463Z,53.10
2022-11-15T04:55:47.551Z,53.30
2022-11-15T04:58:14.270Z,47.08
2022-11-15T05:00:41.071Z,40.47
2022-11-15T05:03:09.614Z,46.35
2022-11-15T05:05:36.383Z,46.88
2022-11-15T05:08:03.133Z,51.88
2022-11-15T05:10:30.111Z,45.67
2022-11-15T05:12:58.168Z,48.13
2022-11-15T05:15:24.922Z,45.22
2022-11-15T05:17:51.590Z,49.88
2022-11-15T05:20:18.320Z,51.90
2022-11-15T05:22:44.923Z,49.65
2022-11-15T05:25:11.490Z,57.70
2022-11-15T05:27:38.130Z,55.00
2022-11-15T05:30:07.511Z,54.70
2022-11-15T05:32:34.180Z,45.58
2022-11-15T05:35:00.743Z,54.83
2022-11-15T05:37:27.424Z,45.20
2022-11-15T05:39:54.020Z,45.92
2022-11-15T05:42:20.721Z,50.70
2022-11-15T05:44:49.641Z,52.97
2022-11-15T05:47:20.573Z,60.70
2022-11-15T05:49:49.237Z,50.90
2022-11-15T05:52:20.051Z,51.92
2022-11-15T05:54:47.047Z,60.50
2022-11-15T05:57:13.717Z,59.45
2022-11-15T05:59:40.798Z,57.33
2022-11-15T06:02:07.580Z,65.50
2022-11-15T06:04:35.797Z,68.00
2022-11-15T06:07:02.607Z,61.42
2022-11-15T06:09:29.590Z,51.83
2022-11-15T06:11:56.192Z,50.33
2022-11-15T06:14:22.814Z,57.95
2022-11-15T06:16:49.425Z,51.97
2022-11-15T06:19:16.075Z,65.35
2022-11-15T06:21:44.026Z,54.95
2022-11-15T06:24:10.619Z,52.67
2022-11-15T06:26:37.189Z,50.75
2022-11-15T06:29:04.496Z,60.35
2022-11-15T06:31:31.057Z,56.28
2022-11-15T06:33:57.787Z,50.22
2022-11-15T06:36:24.409Z,49.28
2022-11-15T06:38:52.578Z,51.85
2022-11-15T06:41:19.195Z,52.38
2022-11-15T06:43:45.953Z,47.42
2022-11-15T06:46:12.593Z,47.60
2022-11-15T06:48:39.301Z,51.53
2022-11-15T06:51:06.315Z,45.75
2022-11-15T06:53:33.562Z,49.03
2022-11-15T06:56:02.778Z,53.17
2022-11-15T06:58:29.748Z,51.35
2022-11-15T07:01:00.353Z,46.78
2022-11-15T07:03:26.992Z,51.33
2022-11-15T07:05:54.443Z,41.70
2022-11-15T07:08:21.207Z,53.88
2022-11-15T07:10:47.828Z,50.20
2022-11-15T07:13:15.848Z,56.45
2022-11-15T07:15:42.555Z,66.35
2022-11-15T07:18:09.284Z,61.35
2022-11-15T07:20:36.306Z,62.30
2022-11-15T07:23:03.550Z,53.90
2022-11-15T07:25:30.738Z,58.67
2022-11-15T07:27:58.270Z,49.88
2022-11-15T07:30:27.369Z,50.80
2022-11-15T07:32:55.128Z,56.58
2022-11-15T07:35:21.784Z,48.90
2022-11-15T07:37:54.837Z,56.20
2022-11-15T07:40:22.111Z,55.38
2022-11-15T07:42:48.723Z,49.60
2022-11-15T07:45:15.548Z,47.60
2022-11-15T07:47:46.437Z,54.10
2022-11-15T07:50:13.107Z,59.42
2022-11-15T07:52:39.838Z,53.85
2022-11-15T07:55:08.039Z,60.10
2022-11-15T07:57:34.700Z,55.03
2022-11-15T08:00:01.578Z,53.03
2022-11-15T08:02:30.602Z,58.55
2022-11-15T08:04:58.853Z,56.08
2022-11-15T08:07:25.705Z,58.22
2022-11-15T08:09:52.770Z,55.97
2022-11-15T08:12:19.644Z,63.33
2022-11-15T08:14:46.353Z,65.25
2022-11-15T08:17:13.082Z,56.70
2022-11-15T08:19:39.731Z,52.60
2022-11-15T08:22:08.015Z,57.17
2022-11-15T08:24:34.707Z,54.53
2022-11-15T08:27:01.499Z,61.05
2022-11-15T08:29:28.195Z,51.60
2022-11-15T08:31:56.103Z,63.65
2022-11-15T08:34:23.111Z,60.55
2022-11-15T08:36:49.786Z,64.40
2022-11-15T08:39:17.961Z,54.92
2022-11-15T08:41:44.619Z,52.20
2022-11-15T08:44:11.271Z,50.35
2022-11-15T08:46:38.003Z,50.42
2022-11-15T08:49:04.718Z,50.92
2022-11-15T08:51:31.372Z,51.60
2022-11-15T08:53:57.974Z,46.90
2022-11-15T08:56:26.111Z,48.33
2022-11-15T08:58:52.695Z,46.65
2022-11-15T09:01:21.311Z,43.30
2022-11-15T09:03:48.228Z,42.40
2022-11-15T09:06:15.094Z,42.08
2022-11-15T09:08:49.102Z,44.45
2022-11-15T09:11:15.886Z,42.80
2022-11-15T09:13:44.084Z,39.72
2022-11-15T09:16:10.809Z,42.55
2022-11-15T09:18:37.367Z,39.40
2022-11-15T09:21:04.134Z,42.47
2022-11-15T09:23:30.891Z,39.22
2022-11-15T09:26:01.480Z,42.45
2022-11-15T09:28:28.271Z,38.22
2022-11-15T09:30:58.482Z,38.90
2022-11-15T09:33:25.445Z,44.42
2022-11-15T09:35:52.056Z,34.53
2022-11-15T09:38:19.058Z,37.47
2022-11-15T09:40:51.469Z,37.50
2022-11-15T09:43:30.386Z,35.55
2022-11-15T09:46:11.410Z,33.65
2022-11-15T09:48:50.457Z,32.42
2022-11-15T09:51:25.402Z,31.40
2022-11-15T09:54:50.903Z,29.83
2022-11-15T09:56:52.290Z,34.05
2022-11-15T09:59:33.721Z,35.78
2022-11-15T10:02:15.421Z,30.15
2022-11-15T10:04:42.997Z,31.05
2022-11-15T10:07:16.652Z,30.63
2022-11-15T10:09:48.649Z,28.20
2022-11-15T10:12:16.596Z,27.63
2022-11-15T10:14:43.761Z,26.77
2022-11-15T10:17:27.380Z,32.50
2022-11-15T10:20:06.017Z,29.48
2022-11-15T10:22:39.217Z,28.80
2022-11-15T10:25:19.270Z,29.80
2022-11-15T10:27:53.180Z,26.63
2022-11-15T10:30:20.450Z,26.60
2022-11-15T10:32:49.839Z,25.92
2022-11-15T10:35:23.504Z,26.58
2022-11-15T10:37:50.322Z,26.98
2022-11-15T10:40:19.823Z,25.35
2022-11-15T10:42:46.753Z,26.30
2022-11-15T10:45:34.798Z,25.40
2022-11-15T10:50:55.859Z,24.08
2022-11-15T10:53:27.178Z,28.00
2022-11-15T10:55:57.654Z,25.00
2022-11-15T10:58:35.937Z,21.17
2022-11-15T11:01:18.097Z,24.30
2022-11-15T11:03:45.992Z,31.02
2022-11-15T11:06:16.485Z,25.23
2022-11-15T11:08:56.512Z,24.77
2022-11-15T11:11:23.279Z,21.98
2022-11-15T11:13:50.310Z,24.58
2022-11-15T11:16:36.233Z,23.63
2022-11-15T11:19:17.329Z,26.55
2022-11-15T11:21:53.931Z,22.48
2022-11-15T11:24:29.986Z,25.77
2022-11-15T11:27:17.896Z,25.75
2022-11-15T11:29:57.520Z,24.63
2022-11-15T11:32:41.187Z,26.58
2022-11-15T11:35:13.992Z,21.67
2022-11-15T11:37:54.208Z,21.40
2022-11-15T11:40:29.999Z,29.73
2022-11-15T11:43:03.557Z,23.42
2022-11-15T11:45:54.174Z,24.48
2022-11-15T11:48:35.566Z,22.80
2022-11-15T11:51:09.153Z,22.58
2022-11-15T11:53:43.008Z,26.45
2022-11-15T11:56:17.594Z,22.17
2022-11-15T11:58:46.869Z,23.70
2022-11-15T12:01:17.172Z,149.82
2022-11-15T12:03:48.822Z,45.33
2022-11-15T12:06:34.389Z,26.95
2022-11-15T12:09:08.075Z,26.58
2022-11-15T12:11:44.710Z,26.20
2022-11-15T12:14:22.062Z,21.40
2022-11-15T12:16:48.764Z,23.38
2022-11-15T12:19:15.493Z,21.75
2022-11-15T12:21:47.731Z,21.13
2022-11-15T12:24:21.933Z,22.77
2022-11-15T12:26:53.627Z,20.33
2022-11-15T12:29:27.765Z,22.58
2022-11-15T12:31:56.935Z,21.13
2022-11-15T12:34:41.094Z,20.58
2022-11-15T12:37:53.138Z,23.83
2022-11-15T12:40:34.332Z,19.50
2022-11-15T12:43:04.718Z,21.23
2022-11-15T12:45:34.603Z,21.50
2022-11-15T12:48:48.172Z,18.90
2022-11-15T12:51:14.914Z,20.38
2022-11-15T12:53:41.551Z,17.48
2022-11-15T12:56:21.871Z,19.67
2022-11-15T12:58:50.588Z,18.48
2022-11-15T13:01:55.103Z,22.23
2022-11-15T13:04:30.722Z,18.13
2022-11-15T13:07:00.144Z,19.67
2022-11-15T13:09:55.577Z,18.08
2022-11-15T13:12:58.646Z,19.90
2022-11-15T13:15:56.517Z,18.48
2022-11-15T13:18:36.842Z,18.00
2022-11-15T13:21:05.714Z,22.73
2022-11-15T13:23:32.392Z,18.80
2022-11-15T13:26:14.163Z,19.20
2022-11-15T13:28:46.043Z,20.40
2022-11-15T13:31:23.694Z,17.67
2022-11-15T13:33:51.034Z,25.55
2022-11-15T13:36:21.662Z,18.70
2022-11-15T13:38:56.239Z,17.05
2022-11-15T13:41:24.685Z,15.75
2022-11-15T13:43:54.414Z,18.58
2022-11-15T13:46:22.635Z,21.38
2022-11-15T13:48:54.125Z,18.48
2022-11-15T13:51:24.722Z,17.98
2022-11-15T13:53:55.463Z,17.40
2022-11-15T13:56:22.486Z,21.30
2022-11-15T13:58:49.249Z,19.33
2022-11-15T14:01:20.107Z,16.17
2022-11-15T14:03:51.566Z,19.17
2022-11-15T14:06:20.358Z,18.50
2022-11-15T14:09:04.383Z,22.67
2022-11-15T14:11:31.598Z,22.55
2022-11-15T14:14:06.094Z,22.40
2022-11-15T14:16:37.403Z,22.90
2022-11-15T14:19:05.256Z,23.73
2022-11-15T14:21:32.570Z,24.42
2022-11-15T14:24:17.849Z,24.15
2022-11-15T14:26:45.136Z,20.05
2022-11-15T14:29:25.335Z,24.60
2022-11-15T14:31:53.777Z,20.85
2022-11-15T14:34:20.632Z,27.23
2022-11-15T14:36:47.291Z,21.05
2022-11-15T14:39:14.163Z,25.25
2022-11-15T14:41:40.814Z,23.00
2022-11-15T14:44:07.650Z,24.15
2022-11-15T14:46:34.446Z,30.02
2022-11-15T14:49:02.520Z,23.42
2022-11-15T14:51:29.419Z,22.70
2022-11-15T14:53:56.010Z,25.75
2022-11-15T14:56:22.585Z,27.13
2022-11-15T14:58:49.266Z,27.88
2022-11-15T15:01:20.700Z,23.50
2022-11-15T15:03:47.329Z,29.13
2022-11-15T15:06:18.177Z,24.05
2022-11-15T15:08:45.465Z,33.90
2022-11-15T15:11:15.606Z,25.00
2022-11-15T15:13:42.295Z,29.75
2022-11-15T15:16:09.164Z,45.30
2022-11-15T15:18:35.743Z,46.25
2022-11-15T15:21:03.146Z,27.95
2022-11-15T15:23:31.137Z,32.70
2022-11-15T15:25:57.928Z,32.72
2022-11-15T15:28:26.620Z,30.05
2022-11-15T15:30:55.285Z,32.95
2022-11-15T15:33:21.902Z,26.60
2022-11-15T15:35:48.545Z,29.42
2022-11-15T15:38:15.275Z,29.63
2022-11-15T15:40:43.405Z,26.15
2022-11-15T15:43:10.155Z,34.50
2022-11-15T15:45:38.658Z,31.33
2022-11-15T15:48:05.401Z,37.47
2022-11-15T15:50:34.414Z,32.25
2022-11-15T15:53:03.146Z,41.35
2022-11-15T15:55:30.366Z,39.20
2022-11-15T15:57:58.646Z,47.17
2022-11-15T16:00:26.688Z,45.25
2022-11-15T16:02:53.712Z,47.33
2022-11-15T16:05:20.837Z,57.50
2022-11-15T16:07:47.857Z,37.28
2022-11-15T16:10:21.774Z,42.22
2022-11-15T16:12:49.059Z,42.90
2022-11-15T16:15:17.150Z,39.08
2022-11-15T16:17:48.436Z,34.08
2022-11-15T16:20:24.781Z,37.08
2022-11-15T16:22:51.551Z,38.30
2022-11-15T16:25:18.268Z,37.85
2022-11-15T16:27:44.873Z,36.15
2022-11-15T16:30:15.409Z,53.90
2022-11-15T16:32:43.775Z,57.80
2022-11-15T16:35:12.578Z,47.25
2022-11-15T16:37:39.601Z,37.10
2022-11-15T16:40:11.973Z,42.45
2022-11-15T16:42:38.515Z,36.72
2022-11-15T16:45:06.237Z,37.13
2022-11-15T16:47:32.837Z,38.00
2022-11-15T16:50:00.900Z,40.30
2022-11-15T16:52:27.884Z,39.05
2022-11-15T16:54:54.544Z,41.33
2022-11-15T16:57:21.109Z,34.60
2022-11-15T16:59:47.851Z,39.22
2022-11-15T17:02:14.649Z,38.88
2022-11-15T17:04:41.261Z,39.10
2022-11-15T17:07:09.610Z,38.50
2022-11-15T17:09:36.231Z,36.05
2022-11-15T17:12:02.817Z,36.53
2022-11-15T17:14:29.508Z,39.60
2022-11-15T17:16:56.150Z,45.45
2022-11-15T17:19:22.808Z,45.20
2022-11-15T17:21:49.622Z,43.28
2022-11-15T17:24:17.874Z,43.13
2022-11-15T17:26:44.512Z,46.90
2022-11-15T17:29:11.266Z,47.78
2022-11-15T17:31:38.646Z,48.67
2022-11-15T17:34:06.636Z,53.30
2022-11-15T17:36:34.002Z,47.85
2022-11-15T17:39:00.798Z,50.47
2022-11-15T17:41:29.397Z,46.58
2022-11-15T17:43:57.125Z,49.83
2022-11-15T17:46:23.850Z,51.70
2022-11-15T17:48:50.536Z,43.88
2022-11-15T17:51:18.722Z,49.60
2022-11-15T17:53:47.391Z,44.38
2022-11-15T17:56:16.379Z,49.33
2022-11-15T17:58:48.241Z,52.50
2022-11-15T18:01:18.695Z,46.63
2022-11-15T18:03:46.023Z,49.65
2022-11-15T18:06:13.166Z,57.17
2022-11-15T18:08:41.490Z,56.17
2022-11-15T18:11:10.845Z,48.67
2022-11-15T18:13:38.805Z,57.25
2022-11-15T18:16:10.723Z,52.67
2022-11-15T18:18:37.547Z,58.03
2022-11-15T18:21:05.371Z,59.97
2022-11-15T18:23:32.976Z,66.10
2022-11-15T18:26:00.163Z,61.10
2022-11-15T18:28:32.046Z,54.38
2022-11-15T18:30:59.540Z,63.55
2022-11-15T18:33:28.630Z,61.15
2022-11-15T18:36:02.529Z,62.15
2022-11-15T18:38:29.704Z,60.45
2022-11-15T18:40:57.892Z,66.03
2022-11-15T18:43:24.565Z,72.10
2022-11-15T18:45:51.265Z,72.65
2022-11-15T18:48:18.406Z,72.78
2022-11-15T18:50:46.790Z,69.97
2022-11-15T18:53:13.514Z,69.82
2022-11-15T18:55:40.154Z,78.60
2022-11-15T18:58:06.766Z,69.93
2022-11-15T19:00:33.406Z,76.13
2022-11-15T19:03:00.088Z,75.90
2022-11-15T19:05:26.679Z,78.20
2022-11-15T19:07:54.724Z,78.53
2022-11-15T19:10:21.394Z,75.95
2022-11-15T19:12:47.931Z,84.93
2022-11-15T19:15:14.750Z,78.45
2022-11-15T19:17:41.465Z,80.20
2022-11-15T19:20:09.132Z,79.57
2022-11-15T19:22:35.745Z,78.68
2022-11-15T19:25:04.100Z,82.65
2022-11-15T19:27:34.225Z,87.80
2022-11-15T19:30:04.320Z,83.68
2022-11-15T19:32:31.014Z,86.85
2022-11-15T19:34:57.609Z,80.72
2022-11-15T19:37:24.203Z,83.60
2022-11-15T19:39:50.917Z,76.03
2022-11-15T19:42:18.868Z,81.50
2022-11-15T19:44:45.456Z,85.93
2022-11-15T19:47:12.161Z,77.97
2022-11-15T19:49:38.729Z,79.28
2022-11-15T19:52:05.451Z,77.28
2022-11-15T19:54:32.079Z,82.75
2022-11-15T19:56:58.721Z,79.00
2022-11-15T19:59:26.734Z,87.00
2022-11-15T20:01:53.345Z,76.95
2022-11-15T20:04:20.020Z,83.80
2022-11-15T20:06:46.703Z,86.65
2022-11-15T20:09:15.372Z,90.75
2022-11-15T20:11:42.456Z,86.32
2022-11-15T20:14:09.147Z,98.55
2022-11-15T20:16:37.241Z,88.57
2022-11-15T20:19:04.308Z,90.25
2022-11-15T20:21:30.959Z,116.82
2022-11-15T20:23:57.695Z,127.93
2022-11-15T20:26:24.325Z,109.50
2022-11-15T20:28:50.962Z,103.60
2022-11-15T20:31:18.038Z,109.00
2022-11-15T20:33:46.135Z,112.93
2022-11-15T20:36:14.282Z,113.47
2022-11-15T20:38:40.920Z,113.05
2022-11-15T20:41:07.687Z,117.18
2022-11-15T20:43:34.296Z,135.10
2022-11-15T20:46:01.038Z,103.13
2022-11-15T20:48:27.715Z,105.40
2022-11-15T20:51:05.165Z,103.53
2022-11-15T20:53:32.061Z,106.75
2022-11-15T20:56:03.963Z,117.53
2022-11-15T20:58:30.764Z,116.25
2022-11-15T21:00:57.649Z,125.90
2022-11-15T21:03:24.482Z,157.43
2022-11-15T21:05:53.348Z,125.20
2022-11-15T21:08:21.344Z,124.22
2022-11-15T21:10:50.579Z,100.25
2022-11-15T21:13:17.398Z,149.77
2022-11-15T21:15:44.029Z,101.65
2022-11-15T21:18:10.685Z,108.03
2022-11-15T21:20:37.462Z,121.57
2022-11-15T21:23:04.172Z,107.80
2022-11-15T21:25:32.543Z,130.40
2022-11-15T21:27:59.207Z,103.57
2022-11-15T21:30:25.872Z,151.25
2022-11-15T21:32:52.581Z,108.43
2022-11-15T21:35:19.179Z,138.40
2022-11-15T21:37:46.112Z,120.70
2022-11-15T21:40:13.086Z,123.30
2022-11-15T21:42:41.018Z,106.05
2022-11-15T21:45:08.661Z,111.03
2022-11-15T21:47:35.323Z,173.35
2022-11-15T21:50:02.018Z,109.40
2022-11-15T21:52:28.845Z,104.35
2022-11-15T21:54:55.521Z,122.70
2022-11-15T21:57:22.192Z,134.93
2022-11-15T21:59:50.193Z,134.65
2022-11-15T22:02:16.785Z,135.38
2022-11-15T22:04:43.427Z,140.02
2022-11-15T22:07:10.143Z,141.13
2022-11-15T22:09:37.052Z,110.10
2022-11-15T22:12:03.846Z,123.70
2022-11-15T22:14:30.441Z,122.13
2022-11-15T22:16:58.548Z,110.93
2022-11-15T22:19:25.038Z,136.23
2022-11-15T22:21:51.501Z,123.45
2022-11-15T22:24:17.999Z,121.00
2022-11-15T22:26:44.531Z,123.53
2022-11-15T22:29:11.050Z,156.35
2022-11-15T22:31:37.537Z,148.50
2022-11-15T22:34:05.414Z,127.38
2022-11-15T22:36:46.937Z,122.82
2022-11-15T22:39:18.598Z,119.15
2022-11-15T22:41:45.203Z,139.80
2022-11-15T22:44:11.833Z,90.88
2022-11-15T22:46:38.377Z,112.25
2022-11-15T22:49:06.405Z,132.70
2022-11-15T22:51:32.930Z,97.45
2022-11-15T22:53:59.419Z,104.25
2022-11-15T22:56:25.925Z,128.38
2022-11-15T22:58:52.450Z,86.80
2022-11-15T23:01:20.857Z,106.97
2022-11-15T23:03:47.552Z,89.47
2022-11-15T23:06:15.646Z,97.45
2022-11-15T23:08:42.569Z,110.57
2022-11-15T23:11:11.033Z,83.68
2022-11-15T23:13:37.521Z,111.88
2022-11-15T23:16:06.477Z,118.97
2022-11-15T23:18:34.457Z,110.15
2022-11-15T23:21:08.162Z,82.30
2022-11-15T23:26:02.753Z,83.93
2022-11-15T23:28:29.834Z,103.80
2022-11-15T23:31:02.374Z,115.28
2022-11-15T23:33:28.876Z,123.22
2022-11-15T23:35:55.425Z,105.88
2022-11-15T23:38:21.976Z,127.72
2022-11-15T23:40:52.513Z,123.60
2022-11-15T23:43:19.488Z,106.95
2022-11-15T23:45:46.212Z,135.88
2022-11-15T23:48:12.742Z,109.38
2022-11-15T23:50:39.271Z,108.47
2022-11-15T23:53:05.886Z,95.00
2022-11-15T23:55:32.636Z,120.35
2022-11-15T23:58:00.580Z,121.53
